Time;durP1;ratioP1;P1;durP2;ratioP2;P2;SDS_P1;SDS_P2;PMS_P1;PMS_P2;Temp;Humidity;BMP_temperature;BMP_pressure;BME280_temperature;BME280_humidity;BME280_pressure;Samples;Min_cycle;Max_cycle;Signal;HPM_P1;HPM_P2
2023/03/08 00:00:53;;;;;;;13.77;8.20;;;;;;;1.64;100.00;98668.91;5102232;28;20478;-64
2023/03/08 00:03:20;;;;;;;14.20;8.70;;;;;;;1.61;100.00;98668.31;5100179;28;20480;-62
2023/03/08 00:05:46;;;;;;;16.40;8.13;;;;;;;1.78;100.00;98675.69;5100015;28;20514;-62
2023/03/08 00:08:13;;;;;;;11.80;7.70;;;;;;;1.83;100.00;98667.44;5101081;28;20443;-62
2023/03/08 00:10:41;;;;;;;13.60;7.27;;;;;;;1.68;100.00;98682.66;5103179;28;20505;-63
2023/03/08 00:13:08;;;;;;;13.83;8.20;;;;;;;1.57;100.00;98680.06;5104050;28;20488;-62
2023/03/08 00:15:36;;;;;;;9.73;7.53;;;;;;;1.53;100.00;98686.50;5103637;28;20474;-62
2023/03/08 00:18:03;;;;;;;11.80;7.77;;;;;;;1.44;100.00;98682.81;5105160;28;20449;-63
2023/03/08 00:20:30;;;;;;;12.50;7.67;;;;;;;1.68;100.00;98696.69;5103703;28;20495;-62
2023/03/08 00:22:56;;;;;;;11.80;7.27;;;;;;;1.48;100.00;98687.72;5104588;28;20484;-62
2023/03/08 00:25:23;;;;;;;12.07;7.83;;;;;;;1.32;100.00;98692.53;5094968;28;20473;-63
2023/03/08 00:27:51;;;;;;;10.73;8.40;;;;;;;1.40;100.00;98697.19;5104223;28;20470;-62
2023/03/08 00:30:17;;;;;;;12.80;7.50;;;;;;;1.39;100.00;98698.13;5103149;28;20454;-62
2023/03/08 00:32:44;;;;;;;11.37;7.87;;;;;;;1.56;100.00;98695.00;5104423;28;20455;-62
2023/03/08 00:35:11;;;;;;;10.70;6.90;;;;;;;1.53;100.00;98697.91;5104418;28;20508;-62
2023/03/08 00:37:37;;;;;;;12.87;6.90;;;;;;;1.42;100.00;98701.38;5104598;28;20472;-62
2023/03/08 00:40:05;;;;;;;10.30;6.57;;;;;;;1.47;100.00;98699.22;5104309;28;20450;-62
2023/03/08 00:42:32;;;;;;;9.23;7.10;;;;;;;1.36;100.00;98699.22;5103676;28;20502;-62
2023/03/08 00:45:00;;;;;;;10.40;7.90;;;;;;;1.56;100.00;98696.81;5104118;28;20703;-61
2023/03/08 00:47:26;;;;;;;11.23;8.57;;;;;;;1.59;100.00;98693.94;5119344;28;20509;-62
2023/03/08 00:49:53;;;;;;;8.93;7.00;;;;;;;1.81;100.00;98693.91;5089409;28;20441;-62
2023/03/08 00:52:20;;;;;;;12.00;7.50;;;;;;;1.82;100.00;98697.38;5098578;28;20485;-62
2023/03/08 00:54:46;;;;;;;9.90;7.67;;;;;;;1.82;100.00;98694.72;5104413;28;20442;-62
2023/03/08 00:57:15;;;;;;;9.60;7.40;;;;;;;1.66;100.00;98695.13;5103486;28;20476;-62
2023/03/08 00:59:41;;;;;;;10.43;7.70;;;;;;;1.45;100.00;98685.34;5103578;28;21074;-61
2023/03/08 01:02:09;;;;;;;11.60;7.00;;;;;;;1.62;100.00;98693.72;5102490;28;21185;-62
2023/03/08 01:04:36;;;;;;;13.70;7.10;;;;;;;1.25;100.00;98686.91;5088719;28;20497;-61
2023/03/08 01:07:03;;;;;;;9.13;6.90;;;;;;;1.41;100.00;98688.34;5113780;28;20481;-61
2023/03/08 01:09:29;;;;;;;11.60;7.70;;;;;;;1.36;100.00;98693.13;5103609;28;20441;-62
2023/03/08 01:11:56;;;;;;;11.30;7.83;;;;;;;1.57;100.00;98688.78;5090096;28;20508;-62
2023/03/08 01:14:22;;;;;;;14.03;7.83;;;;;;;1.59;100.00;98686.03;5107731;28;20496;-62
2023/03/08 01:16:49;;;;;;;10.07;7.70;;;;;;;1.81;100.00;98680.72;5102742;28;20485;-62
2023/03/08 01:19:17;;;;;;;9.37;6.67;;;;;;;2.00;100.00;98685.34;5103920;28;20467;-62
2023/03/08 01:21:44;;;;;;;11.50;7.50;;;;;;;2.00;100.00;98676.63;5108491;28;20903;-62
2023/03/08 01:24:10;;;;;;;9.60;7.13;;;;;;;2.05;100.00;98677.06;5103892;28;20450;-62
2023/03/08 01:26:37;;;;;;;13.63;7.87;;;;;;;1.98;100.00;98683.78;5102966;28;20486;-62
2023/03/08 01:29:03;;;;;;;10.60;8.40;;;;;;;1.92;100.00;98679.03;5103045;28;20462;-62
2023/03/08 01:31:30;;;;;;;8.93;7.03;;;;;;;1.90;100.00;98683.59;5102492;28;20501;-63
2023/03/08 01:33:58;;;;;;;10.53;7.17;;;;;;;1.77;100.00;98679.31;5102972;28;20451;-63
2023/03/08 01:36:27;;;;;;;9.10;6.23;;;;;;;1.88;100.00;98670.53;5102823;28;20484;-63
2023/03/08 01:38:54;;;;;;;7.50;6.77;;;;;;;1.42;100.00;98661.88;5103208;28;20432;-62
2023/03/08 01:41:23;;;;;;;9.60;7.10;;;;;;;1.40;100.00;98655.06;5102410;28;20517;-63
2023/03/08 01:43:49;;;;;;;10.33;7.30;;;;;;;1.37;100.00;98661.44;5099702;28;20469;-63
2023/03/08 01:46:25;;;;;;;7.00;5.50;;;;;;;1.10;100.00;98661.78;5107889;28;20541;-63
2023/03/08 01:48:56;;;;;;;8.37;6.10;;;;;;;1.24;100.00;98664.16;5100863;28;20453;-64
2023/03/08 01:51:28;;;;;;;8.97;6.30;;;;;;;1.23;100.00;98659.03;5102383;28;20494;-63
2023/03/08 01:53:55;;;;;;;9.03;5.93;;;;;;;1.18;100.00;98667.28;5102762;28;20467;-63
2023/03/08 01:56:22;;;;;;;8.20;5.23;;;;;;;1.23;100.00;98662.50;5102325;28;20502;-64
2023/03/08 01:58:50;;;;;;;5.83;4.47;;;;;;;1.06;100.00;98663.81;5102154;28;20466;-63
2023/03/08 02:01:18;;;;;;;7.83;5.40;;;;;;;1.18;100.00;98650.66;5101877;28;20897;-64
2023/03/08 02:03:45;;;;;;;6.43;5.03;;;;;;;1.24;100.00;98658.91;5101374;28;20492;-63
2023/03/08 02:06:12;;;;;;;6.43;4.70;;;;;;;1.08;100.00;98667.16;5101894;28;20476;-63
2023/03/08 02:08:41;;;;;;;6.90;5.00;;;;;;;1.49;100.00;98654.31;5102791;28;20480;-64
2023/03/08 02:11:08;;;;;;;5.60;4.70;;;;;;;1.68;100.00;98657.19;5104497;28;20927;-64
2023/03/08 02:13:34;;;;;;;6.20;4.53;;;;;;;1.74;100.00;98642.66;5101609;28;20526;-63
2023/03/08 02:16:02;;;;;;;5.80;5.13;;;;;;;1.71;100.00;98636.81;5101461;28;20507;-64
2023/03/08 02:18:29;;;;;;;5.97;5.20;;;;;;;1.82;100.00;98642.03;5102449;28;20448;-63
2023/03/08 02:20:56;;;;;;;6.77;5.90;;;;;;;1.79;100.00;98634.38;5106384;28;21015;-64
2023/03/08 02:23:25;;;;;;;8.03;5.43;;;;;;;1.82;100.00;98631.50;5117525;28;20495;-63
2023/03/08 02:25:53;;;;;;;7.87;6.10;;;;;;;1.64;100.00;98637.28;5100712;28;20484;-64
2023/03/08 02:28:20;;;;;;;9.00;5.10;;;;;;;1.39;100.00;98637.56;5102279;28;20506;-64
2023/03/08 02:30:47;;;;;;;6.43;5.30;;;;;;;1.55;100.00;98637.22;5100693;28;20524;-63
2023/03/08 02:33:14;;;;;;;6.33;5.07;;;;;;;1.66;100.00;98635.38;5101087;28;20506;-64
2023/03/08 02:35:42;;;;;;;7.57;5.67;;;;;;;1.68;100.00;98632.59;5114740;28;20568;-63
2023/03/08 02:38:09;;;;;;;10.13;5.77;;;;;;;1.72;100.00;98627.94;5102680;28;20465;-63
2023/03/08 02:40:38;;;;;;;7.20;5.57;;;;;;;1.60;100.00;98633.25;5101092;28;20542;-63
2023/03/08 02:43:05;;;;;;;7.37;6.00;;;;;;;1.61;100.00;98629.63;5101217;28;20940;-64
2023/03/08 02:45:32;;;;;;;7.80;5.97;;;;;;;1.68;100.00;98628.19;5101133;28;20492;-63
2023/03/08 02:47:59;;;;;;;6.87;5.80;;;;;;;1.33;100.00;98633.66;5101852;28;20552;-63
2023/03/08 02:50:26;;;;;;;11.20;7.40;;;;;;;1.21;100.00;98614.38;5101349;28;20992;-62
2023/03/08 02:52:52;;;;;;;10.53;7.13;;;;;;;1.43;100.00;98624.06;5101727;28;20601;-63
2023/03/08 02:55:19;;;;;;;11.20;7.97;;;;;;;1.40;100.00;98620.84;5107217;28;20505;-63
2023/03/08 02:57:47;;;;;;;10.30;7.33;;;;;;;1.63;100.00;98618.97;5109434;28;20471;-63
2023/03/08 03:00:14;;;;;;;11.50;7.73;;;;;;;1.74;100.00;98612.84;5113181;28;20481;-62
2023/03/08 03:02:41;;;;;;;7.73;6.27;;;;;;;1.49;100.00;98610.41;5109296;28;20497;-63
2023/03/08 03:05:10;;;;;;;10.47;7.20;;;;;;;1.48;100.00;98607.91;5101797;28;20476;-62
2023/03/08 03:07:37;;;;;;;9.30;7.20;;;;;;;1.46;100.00;98600.13;5101998;28;20523;-63
2023/03/08 03:10:04;;;;;;;9.47;7.20;;;;;;;1.42;100.00;98596.03;5101359;28;20443;-62
2023/03/08 03:12:31;;;;;;;8.87;6.70;;;;;;;0.97;100.00;98595.28;5100379;28;20478;-62
2023/03/08 03:15:00;;;;;;;9.97;7.67;;;;;;;1.11;100.00;98597.66;5100491;28;20462;-62
2023/03/08 03:17:27;;;;;;;10.90;7.73;;;;;;;1.34;100.00;98610.78;5101153;28;20507;-63
2023/03/08 03:19:54;;;;;;;10.00;8.23;;;;;;;1.19;100.00;98605.78;5101127;28;20470;-62
2023/03/08 03:22:20;;;;;;;9.53;7.57;;;;;;;1.18;100.00;98603.25;5103620;28;20504;-64
2023/03/08 03:24:47;;;;;;;10.90;7.30;;;;;;;1.26;100.00;98606.13;5106312;28;20447;-64
2023/03/08 03:27:14;;;;;;;10.70;7.50;;;;;;;1.33;100.00;98603.84;5099996;28;20510;-64
2023/03/08 03:29:40;;;;;;;10.70;8.03;;;;;;;1.61;100.00;98602.47;5099832;28;20436;-63
2023/03/08 03:32:09;;;;;;;11.73;8.40;;;;;;;1.70;100.00;98601.69;5100333;28;20489;-63
2023/03/08 03:34:35;;;;;;;11.77;8.10;;;;;;;1.76;100.00;98603.03;5101730;28;20445;-63
2023/03/08 03:37:02;;;;;;;10.30;7.90;;;;;;;1.71;100.00;98611.28;5099843;28;20490;-64
2023/03/08 03:39:32;;;;;;;10.23;7.10;;;;;;;1.40;100.00;98605.03;5101305;28;20474;-63
2023/03/08 03:41:59;;;;;;;9.87;7.70;;;;;;;1.63;100.00;98605.81;5099440;28;20492;-63
2023/03/08 03:44:26;;;;;;;17.33;11.10;;;;;;;1.21;100.00;98603.03;5100088;28;20444;-63
2023/03/08 03:46:52;;;;;;;12.57;9.00;;;;;;;1.21;100.00;98618.81;5104535;28;20504;-64
2023/03/08 03:49:20;;;;;;;12.10;8.47;;;;;;;1.50;100.00;98614.69;5101137;28;20433;-63
2023/03/08 03:51:47;;;;;;;10.90;8.23;;;;;;;1.16;100.00;98616.53;5100056;28;20503;-63
2023/03/08 03:54:13;;;;;;;13.17;9.73;;;;;;;1.35;100.00;98608.03;5100640;28;20585;-63
2023/03/08 03:56:40;;;;;;;14.93;10.43;;;;;;;1.04;100.00;98610.47;5100090;28;20539;-64
2023/03/08 03:59:07;;;;;;;17.87;10.40;;;;;;;0.98;100.00;98612.75;5099465;28;20479;-64
2023/03/08 04:01:33;;;;;;;14.63;9.87;;;;;;;1.02;100.00;98614.16;5099663;28;20624;-64
2023/03/08 04:04:00;;;;;;;18.57;11.03;;;;;;;0.91;100.00;98617.66;5100905;28;20996;-64
2023/03/08 04:06:29;;;;;;;17.97;11.87;;;;;;;0.84;100.00;98609.38;5100212;28;20487;-63
2023/03/08 04:08:57;;;;;;;15.20;11.20;;;;;;;1.15;100.00;98612.25;5108751;28;20499;-64
2023/03/08 04:11:26;;;;;;;13.63;9.70;;;;;;;1.16;100.00;98608.66;5098458;28;20496;-64
2023/03/08 04:13:53;;;;;;;17.93;11.33;;;;;;;0.77;100.00;98612.63;5100268;28;20452;-63
2023/03/08 04:16:21;;;;;;;20.90;12.93;;;;;;;0.83;100.00;98612.13;5099725;28;20994;-63
2023/03/08 04:18:48;;;;;;;18.47;12.50;;;;;;;0.72;100.00;98607.72;5101605;28;20440;-63
2023/03/08 04:21:15;;;;;;;19.67;11.77;;;;;;;0.72;100.00;98613.81;5099668;28;20500;-63
2023/03/08 04:23:43;;;;;;;20.17;13.70;;;;;;;0.98;100.00;98607.47;5100943;28;20483;-62
2023/03/08 04:26:09;;;;;;;21.97;15.03;;;;;;;0.85;100.00;98597.94;5100331;28;20508;-63
2023/03/08 04:28:36;;;;;;;23.73;15.83;;;;;;;0.91;100.00;98594.78;5099752;28;20477;-64
2023/03/08 04:31:12;;;;;;;22.13;14.60;;;;;;;0.91;100.00;98601.84;5099248;28;21113;-64
2023/03/08 04:33:38;;;;;;;22.97;15.20;;;;;;;0.98;100.00;98596.97;5100020;28;20484;-63
2023/03/08 04:36:05;;;;;;;26.03;15.10;;;;;;;1.01;100.00;98602.81;5100187;28;20471;-62
2023/03/08 04:38:32;;;;;;;22.57;14.47;;;;;;;0.68;100.00;98603.66;5100612;28;20897;-62
2023/03/08 04:41:06;;;;;;;27.03;14.63;;;;;;;0.60;100.00;98608.66;5098982;28;20498;-62
2023/03/08 04:43:33;;;;;;;24.53;15.80;;;;;;;0.61;100.00;98605.91;5099591;28;20509;-62
2023/03/08 04:46:00;;;;;;;28.03;16.03;;;;;;;0.95;100.00;98592.75;5098767;28;20505;-62
2023/03/08 04:48:27;;;;;;;28.03;16.90;;;;;;;1.17;100.00;98593.72;5100045;28;20565;-62
2023/03/08 04:50:54;;;;;;;24.27;16.30;;;;;;;1.10;100.00;98591.56;5099680;28;20499;-62
2023/03/08 04:53:21;;;;;;;26.77;16.60;;;;;;;1.12;100.00;98588.81;5100136;28;20450;-62
2023/03/08 04:55:47;;;;;;;26.10;15.63;;;;;;;0.93;100.00;98584.16;5100051;28;20544;-62
2023/03/08 04:58:16;;;;;;;29.17;16.77;;;;;;;0.84;100.00;98579.63;5102271;28;20469;-62
2023/03/08 05:00:42;;;;;;;24.40;15.27;;;;;;;0.83;100.00;98570.03;5103011;28;20479;-62
2023/03/08 05:03:09;;;;;;;25.70;16.43;;;;;;;0.85;100.00;98563.72;5103834;28;20455;-63
2023/03/08 05:05:36;;;;;;;25.20;16.50;;;;;;;0.77;100.00;98554.75;5102087;28;20474;-63
2023/03/08 05:08:04;;;;;;;26.23;17.30;;;;;;;0.74;100.00;98551.38;5104402;28;20495;-62
2023/03/08 05:10:30;;;;;;;22.90;14.93;;;;;;;0.55;100.00;98559.88;5103479;28;20476;-62
2023/03/08 05:12:57;;;;;;;27.20;16.37;;;;;;;0.49;100.00;98554.28;5103445;28;20465;-62
2023/03/08 05:15:25;;;;;;;29.23;16.83;;;;;;;0.55;100.00;98565.13;5101825;28;20449;-63
2023/03/08 05:17:52;;;;;;;29.63;17.90;;;;;;;0.75;100.00;98558.34;5110165;28;20523;-62
2023/03/08 05:20:19;;;;;;;30.20;18.23;;;;;;;0.84;100.00;98558.56;5102569;28;20448;-63
2023/03/08 05:22:45;;;;;;;28.13;16.20;;;;;;;0.73;100.00;98555.00;5103555;28;20457;-63
2023/03/08 05:25:12;;;;;;;29.93;17.70;;;;;;;0.88;100.00;98560.81;5112088;28;20450;-62
2023/03/08 05:27:39;;;;;;;27.53;17.03;;;;;;;0.92;100.00;98556.16;5106603;28;20470;-63
2023/03/08 05:30:06;;;;;;;27.07;16.30;;;;;;;0.96;100.00;98554.97;5112496;28;20467;-62
2023/03/08 05:32:34;;;;;;;27.40;16.30;;;;;;;0.75;100.00;98549.63;5108639;28;20464;-63
2023/03/08 05:35:01;;;;;;;30.07;19.67;;;;;;;0.80;100.00;98552.72;5104344;28;20469;-63
2023/03/08 05:37:27;;;;;;;29.67;17.57;;;;;;;1.01;100.00;98542.28;5098209;28;20476;-65
2023/03/08 05:39:54;;;;;;;28.10;17.63;;;;;;;1.00;100.00;98534.50;5108738;28;20532;-65
2023/03/08 05:42:20;;;;;;;24.50;16.33;;;;;;;1.06;100.00;98534.88;5101685;28;20528;-65
2023/03/08 05:44:47;;;;;;;29.37;17.37;;;;;;;1.16;100.00;98532.31;5099549;28;20905;-65
2023/03/08 05:47:14;;;;;;;27.67;17.53;;;;;;;1.21;100.00;98521.44;5110649;28;20478;-65
2023/03/08 05:49:42;;;;;;;34.30;18.80;;;;;;;1.25;100.00;98521.06;5106970;28;20470;-66
2023/03/08 05:52:08;;;;;;;35.53;20.03;;;;;;;1.20;100.00;98517.09;5091621;28;20481;-65
2023/03/08 05:54:35;;;;;;;34.10;19.00;;;;;;;1.46;100.00;98515.03;5105788;28;20454;-65
2023/03/08 05:57:02;;;;;;;35.13;19.07;;;;;;;0.77;100.00;98524.03;5108375;28;21121;-65
2023/03/08 05:59:28;;;;;;;37.97;21.43;;;;;;;0.49;100.00;98513.03;5118472;28;20434;-65
2023/03/08 06:01:55;;;;;;;38.53;20.30;;;;;;;0.52;100.00;98515.44;5101819;28;20551;-65
2023/03/08 06:04:21;;;;;;;37.40;21.07;;;;;;;0.52;100.00;98509.31;5101863;28;20475;-65
2023/03/08 06:06:50;;;;;;;38.00;21.63;;;;;;;0.49;100.00;98504.31;5105307;28;20482;-67
2023/03/08 06:09:16;;;;;;;40.70;22.43;;;;;;;0.51;100.00;98499.78;5100659;28;21021;-64
2023/03/08 06:11:43;;;;;;;43.93;23.90;;;;;;;0.36;100.00;98497.41;5098922;28;21140;-65
2023/03/08 06:14:09;;;;;;;44.67;23.67;;;;;;;0.38;100.00;98484.09;5100883;28;20479;-65
2023/03/08 06:16:36;;;;;;;40.93;22.73;;;;;;;0.45;100.00;98487.09;5100431;28;20503;-65
2023/03/08 06:19:03;;;;;;;45.30;23.17;;;;;;;0.49;100.00;98496.44;5097753;28;20483;-65
2023/03/08 06:21:29;;;;;;;46.73;25.03;;;;;;;0.60;100.00;98496.41;5096686;28;20548;-65
2023/03/08 06:23:57;;;;;;;50.33;23.60;;;;;;;0.67;100.00;98488.88;5100929;28;20488;-65
2023/03/08 06:26:24;;;;;;;43.20;23.93;;;;;;;0.79;100.00;98490.53;5115766;28;20477;-65
2023/03/08 06:28:51;;;;;;;53.07;26.37;;;;;;;0.77;100.00;98489.00;5114673;28;20462;-65
2023/03/08 06:31:18;;;;;;;40.53;21.93;;;;;;;0.78;100.00;98482.75;5096887;28;20472;-65
2023/03/08 06:33:45;;;;;;;51.77;23.67;;;;;;;0.69;100.00;98486.97;5102639;28;20453;-65
2023/03/08 06:36:16;;;;;;;46.30;24.13;;;;;;;0.64;100.00;98484.69;5100862;28;20484;-65
2023/03/08 06:38:43;;;;;;;48.57;25.10;;;;;;;0.54;100.00;98491.66;5100983;28;20722;-65
2023/03/08 06:41:13;;;;;;;54.80;27.43;;;;;;;0.72;100.00;98484.09;5101044;28;20522;-65
2023/03/08 06:43:40;;;;;;;53.57;27.40;;;;;;;0.78;100.00;98482.75;5100831;28;20483;-65
2023/03/08 06:46:07;;;;;;;60.20;27.70;;;;;;;0.79;100.00;98484.44;5097144;28;20470;-65
2023/03/08 06:48:35;;;;;;;51.33;25.80;;;;;;;0.66;100.00;98482.78;5101746;28;20527;-65
2023/03/08 06:51:02;;;;;;;56.37;28.13;;;;;;;0.83;100.00;98486.69;5092166;28;21151;-65
2023/03/08 06:53:28;;;;;;;54.20;28.00;;;;;;;0.81;100.00;98482.53;5108173;28;20498;-65
2023/03/08 06:55:55;;;;;;;50.60;26.40;;;;;;;0.69;100.00;98479.06;5110720;28;20493;-65
2023/03/08 06:58:23;;;;;;;47.53;26.17;;;;;;;0.62;100.00;98470.81;5110910;28;20466;-65
2023/03/08 07:00:50;;;;;;;51.57;26.23;;;;;;;0.62;100.00;98470.00;5099775;28;20542;-65
2023/03/08 07:03:16;;;;;;;57.77;28.80;;;;;;;0.72;100.00;98460.41;5101478;28;20473;-65
2023/03/08 07:05:43;;;;;;;59.93;28.87;;;;;;;0.47;100.00;98456.25;5102033;28;20504;-65
2023/03/08 07:08:10;;;;;;;58.47;28.63;;;;;;;0.48;100.00;98455.31;5109250;28;20503;-65
2023/03/08 07:10:36;;;;;;;54.47;28.10;;;;;;;0.66;100.00;98445.97;5107442;28;20527;-65
2023/03/08 07:13:03;;;;;;;53.97;27.60;;;;;;;0.66;100.00;98440.72;5084400;28;20450;-65
2023/03/08 07:15:31;;;;;;;54.80;27.80;;;;;;;0.88;100.00;98442.44;5101967;28;20480;-65
2023/03/08 07:17:58;;;;;;;56.60;28.20;;;;;;;1.04;100.00;98442.06;5086334;28;20438;-65
2023/03/08 07:20:27;;;;;;;54.33;28.60;;;;;;;0.85;100.00;98436.59;5096248;28;20461;-65
2023/03/08 07:22:54;;;;;;;56.33;27.93;;;;;;;1.01;100.00;98437.03;5102295;28;20462;-65
2023/03/08 07:25:21;;;;;;;52.00;28.87;;;;;;;1.11;100.00;98432.69;5093521;28;20434;-64
2023/03/08 07:27:48;;;;;;;60.80;29.97;;;;;;;1.03;100.00;98426.38;5098719;28;20879;-64
2023/03/08 07:30:16;;;;;;;54.10;27.13;;;;;;;1.03;100.00;98427.22;5111683;28;21003;-64
2023/03/08 07:32:44;;;;;;;54.40;28.13;;;;;;;1.13;100.00;98419.41;5104536;28;20471;-64
2023/03/08 07:35:12;;;;;;;51.23;28.80;;;;;;;1.41;100.00;98435.56;5107701;28;20448;-64
2023/03/08 07:37:39;;;;;;;50.37;27.67;;;;;;;1.22;100.00;98426.53;5097879;28;20999;-64
2023/03/08 07:40:07;;;;;;;53.73;29.13;;;;;;;1.56;100.00;98426.34;5096777;28;20481;-64
2023/03/08 07:42:34;;;;;;;61.13;32.07;;;;;;;1.63;100.00;98432.81;5105318;28;20549;-63
2023/03/08 07:45:01;;;;;;;55.80;27.60;;;;;;;1.20;100.00;98422.34;5083462;28;20537;-63
2023/03/08 07:47:27;;;;;;;52.93;27.10;;;;;;;1.39;100.00;98417.25;5097209;28;20539;-64
2023/03/08 07:49:55;;;;;;;57.23;28.00;;;;;;;1.36;100.00;98424.56;5104164;28;20513;-64
2023/03/08 07:52:27;;;;;;;50.90;25.17;;;;;;;1.32;100.00;98418.72;5114380;28;20512;-65
2023/03/08 07:54:53;;;;;;;53.47;28.07;;;;;;;1.35;100.00;98415.00;5108467;28;20454;-64
2023/03/08 07:57:20;;;;;;;51.60;26.87;;;;;;;1.55;100.00;98410.72;5098804;28;20503;-64
2023/03/08 07:59:47;;;;;;;44.67;25.37;;;;;;;1.46;100.00;98417.59;5116707;28;20437;-65
2023/03/08 08:02:14;;;;;;;51.87;28.90;;;;;;;1.79;100.00;98418.31;5115311;28;20473;-65
2023/03/08 08:04:41;;;;;;;47.10;26.93;;;;;;;1.73;100.00;98419.69;5104766;28;20451;-65
2023/03/08 08:07:12;;;;;;;54.03;27.73;;;;;;;1.30;100.00;98415.38;5107512;28;21015;-65
2023/03/08 08:09:39;;;;;;;51.57;26.97;;;;;;;1.20;100.00;98407.41;5118918;28;20476;-65
2023/03/08 08:12:06;;;;;;;44.57;25.33;;;;;;;1.21;100.00;98416.13;5111988;28;20501;-65
2023/03/08 08:14:33;;;;;;;47.87;26.13;;;;;;;1.44;100.00;98412.44;5120256;28;20844;-65
2023/03/08 08:16:59;;;;;;;46.00;25.67;;;;;;;1.43;100.00;98415.19;5097576;28;20979;-65
2023/03/08 08:19:26;;;;;;;45.30;25.53;;;;;;;1.62;100.00;98419.75;5105085;28;20444;-65
2023/03/08 08:21:53;;;;;;;49.73;25.83;;;;;;;1.50;100.00;98408.44;5115889;28;20758;-65
2023/03/08 08:24:21;;;;;;;48.93;25.63;;;;;;;1.78;100.00;98406.94;5103092;28;20454;-66
2023/03/08 08:26:48;;;;;;;52.73;26.47;;;;;;;1.90;100.00;98410.34;5098742;28;20908;-65
2023/03/08 08:29:14;;;;;;;55.33;27.30;;;;;;;1.86;100.00;98401.03;5099669;28;20509;-65
2023/03/08 08:31:41;;;;;;;46.00;25.20;;;;;;;1.66;100.00;98402.72;5114649;28;20503;-65
2023/03/08 08:34:08;;;;;;;45.97;26.10;;;;;;;1.88;100.00;98396.47;5115958;28;20526;-65
2023/03/08 08:36:35;;;;;;;39.17;24.00;;;;;;;1.64;100.00;98402.03;5112474;28;20482;-65
2023/03/08 08:39:01;;;;;;;45.90;23.47;;;;;;;2.08;100.00;98394.75;5121524;28;20448;-65
2023/03/08 08:41:31;;;;;;;48.37;23.30;;;;;;;1.88;100.00;98388.56;5122080;28;21054;-63
2023/03/08 08:43:58;;;;;;;39.20;21.80;;;;;;;1.92;100.00;98386.50;5116672;28;20470;-64
2023/03/08 08:46:27;;;;;;;43.30;21.77;;;;;;;2.13;100.00;98383.81;5110552;28;21131;-63
2023/03/08 08:48:54;;;;;;;44.40;24.80;;;;;;;2.12;100.00;98380.34;5105492;28;20954;-64
2023/03/08 08:51:20;;;;;;;50.40;29.63;;;;;;;1.98;100.00;98378.06;5123208;28;20476;-63
2023/03/08 08:53:47;;;;;;;44.07;23.97;;;;;;;2.10;100.00;98374.38;5122477;28;20470;-63
2023/03/08 08:56:15;;;;;;;51.33;26.00;;;;;;;1.74;100.00;98373.94;5121820;28;20485;-64
2023/03/08 08:58:45;;;;;;;46.93;26.90;;;;;;;1.61;100.00;98363.59;5121182;28;20463;-64
2023/03/08 09:01:15;;;;;;;42.43;24.23;;;;;;;1.72;100.00;98367.97;5101827;28;21042;-63
2023/03/08 09:03:42;;;;;;;41.47;23.27;;;;;;;1.76;100.00;98355.38;5120946;28;20485;-64
2023/03/08 09:06:09;;;;;;;40.60;22.20;;;;;;;1.94;100.00;98352.94;5122389;28;20505;-64
2023/03/08 09:08:35;;;;;;;36.60;21.93;;;;;;;2.39;100.00;98357.81;5116490;28;20540;-63
2023/03/08 09:11:04;;;;;;;44.20;22.90;;;;;;;1.85;100.00;98355.41;5102406;28;20573;-64
2023/03/08 09:13:30;;;;;;;41.80;24.27;;;;;;;1.80;100.00;98354.13;5101182;28;20984;-63
2023/03/08 09:15:58;;;;;;;40.53;24.90;;;;;;;1.66;100.00;98350.88;5101562;28;20474;-64
2023/03/08 09:18:26;;;;;;;38.60;22.63;;;;;;;1.80;100.00;98343.59;5101938;28;20553;-64
2023/03/08 09:20:52;;;;;;;40.87;23.00;;;;;;;1.76;100.00;98340.38;5100428;28;20473;-64
2023/03/08 09:23:21;;;;;;;35.60;20.90;;;;;;;1.67;100.00;98338.56;5106899;28;20496;-64
2023/03/08 09:25:55;;;;;;;39.50;23.73;;;;;;;1.26;100.00;98335.81;5112372;28;20616;-64
2023/03/08 09:28:22;;;;;;;42.20;22.63;;;;;;;1.63;100.00;98327.44;5114655;28;20445;-63
2023/03/08 09:30:49;;;;;;;45.73;23.87;;;;;;;1.63;100.00;98334.50;5111033;28;20479;-64
2023/03/08 09:33:18;;;;;;;40.67;23.40;;;;;;;1.68;100.00;98324.41;5113449;28;20496;-64
2023/03/08 09:35:44;;;;;;;45.53;24.53;;;;;;;2.20;100.00;98316.41;5119440;28;20509;-63
2023/03/08 09:38:11;;;;;;;41.13;24.80;;;;;;;1.94;100.00;98318.69;5111352;28;20773;-63
2023/03/08 09:40:45;;;;;;;38.40;22.47;;;;;;;1.97;100.00;98316.63;5101140;28;20478;-63
2023/03/08 09:43:22;;;;;;;40.07;22.27;;;;;;;1.63;100.00;98316.91;5086799;28;20541;-63
2023/03/08 09:45:52;;;;;;;38.63;22.73;;;;;;;1.92;100.00;98310.09;5090704;28;20470;-62
2023/03/08 09:48:23;;;;;;;41.10;21.63;;;;;;;2.25;100.00;98304.47;5100517;28;20445;-63
2023/03/08 09:50:51;;;;;;;36.40;23.03;;;;;;;1.43;100.00;98297.53;5100887;28;20518;-63
2023/03/08 09:53:23;;;;;;;42.30;22.43;;;;;;;1.39;100.00;98295.28;5100917;28;20547;-64
2023/03/08 09:55:53;;;;;;;39.17;22.80;;;;;;;1.68;100.00;98306.81;5096290;28;20888;-64
2023/03/08 09:58:32;;;;;;;38.17;22.17;;;;;;;1.96;100.00;98290.38;5099967;28;20482;-64
2023/03/08 10:01:04;;;;;;;40.23;24.17;;;;;;;1.50;100.00;98287.31;5099067;28;20569;-63
2023/03/08 10:04:00;;;;;;;38.47;19.67;;;;;;;1.72;100.00;98291.56;5088251;28;20463;-63
2023/03/08 10:06:32;;;;;;;41.40;21.53;;;;;;;2.04;100.00;98280.84;5084487;28;20623;-63
2023/03/08 10:09:02;;;;;;;45.13;23.97;;;;;;;2.35;100.00;98280.78;5100535;28;20504;-63
2023/03/08 10:11:33;;;;;;;41.30;24.17;;;;;;;2.42;100.00;98289.78;5100726;28;20475;-63
2023/03/08 10:14:03;;;;;;;35.40;20.00;;;;;;;1.98;100.00;98275.28;5099320;28;20454;-63
2023/03/08 10:16:33;;;;;;;32.10;19.60;;;;;;;1.68;100.00;98280.47;5096969;28;20478;-64
2023/03/08 10:19:03;;;;;;;37.10;20.93;;;;;;;1.91;100.00;98272.38;5090179;28;20431;-63
2023/03/08 10:21:33;;;;;;;31.47;18.37;;;;;;;1.33;100.00;98275.59;5099768;28;20482;-63
2023/03/08 10:24:02;;;;;;;24.17;16.23;;;;;;;1.39;100.00;98274.22;5100139;28;20457;-63
2023/03/08 10:26:31;;;;;;;20.70;13.00;;;;;;;1.81;100.00;98272.31;5100869;28;20971;-63
2023/03/08 10:28:58;;;;;;;27.77;16.57;;;;;;;1.46;100.00;98273.56;5100154;28;20474;-63
2023/03/08 10:31:27;;;;;;;27.57;16.03;;;;;;;1.25;100.00;98275.41;5098664;28;20512;-63
2023/03/08 10:34:03;;;;;;;29.13;17.00;;;;;;;1.47;100.00;98266.50;5101309;28;20459;-63
2023/03/08 10:36:31;;;;;;;20.97;12.70;;;;;;;1.35;100.00;98272.81;5100375;28;20525;-63
2023/03/08 10:39:01;;;;;;;17.90;10.37;;;;;;;1.29;100.00;98263.66;5089628;28;20446;-62
2023/03/08 10:41:31;;;;;;;12.03;6.50;;;;;;;1.21;100.00;98264.28;5093523;28;20487;-63
2023/03/08 10:43:58;;;;;;;13.70;8.13;;;;;;;1.24;100.00;98264.03;5080563;28;20454;-63
2023/03/08 10:46:27;;;;;;;13.70;8.37;;;;;;;1.42;100.00;98261.63;5099093;28;20581;-62
2023/03/08 10:48:53;;;;;;;13.07;7.47;;;;;;;1.66;100.00;98261.31;5101219;28;20528;-63
2023/03/08 10:51:21;;;;;;;13.93;8.70;;;;;;;1.96;100.00;98271.94;5099094;28;20505;-64
2023/03/08 10:53:55;;;;;;;15.90;7.80;;;;;;;1.73;100.00;98250.25;5100013;28;20503;-62
2023/03/08 10:56:25;;;;;;;11.40;7.87;;;;;;;1.33;100.00;98251.06;5109579;28;20497;-63
2023/03/08 10:58:54;;;;;;;9.80;6.47;;;;;;;1.81;100.00;98242.53;5104072;28;20462;-63
2023/03/08 11:01:25;;;;;;;8.93;5.17;;;;;;;2.52;100.00;98230.94;5119674;28;20503;-63
2023/03/08 11:03:59;;;;;;;7.97;5.97;;;;;;;2.15;100.00;98245.63;5113473;28;20554;-63
2023/03/08 11:06:26;;;;;;;9.93;6.50;;;;;;;2.17;100.00;98234.94;5100647;28;20474;-63
2023/03/08 11:08:55;;;;;;;8.63;6.33;;;;;;;2.25;100.00;98233.28;5099802;28;20528;-62
2023/03/08 11:11:23;;;;;;;10.40;6.87;;;;;;;2.26;100.00;98234.13;5099796;28;20497;-63
2023/03/08 11:13:50;;;;;;;11.80;7.00;;;;;;;2.56;100.00;98237.59;5108242;28;20460;-63
2023/03/08 11:16:39;;;;;;;12.70;7.70;;;;;;;1.81;100.00;98219.63;5113068;28;20515;-63
2023/03/08 11:19:15;;;;;;;9.27;6.83;;;;;;;1.91;100.00;98245.16;5111434;28;20488;-63
2023/03/08 11:21:50;;;;;;;10.53;6.63;;;;;;;1.41;100.00;98254.72;5111916;28;20483;-63
2023/03/08 11:24:26;;;;;;;10.67;7.10;;;;;;;1.38;100.00;98241.78;5116956;28;20705;-63